Main page
METAR-TAF:

METAR-TAF

Airports :

Padua Airport

Padua, Italy

latitude: 45-23-45N, longitude: 11-50-53E, elevation: 13 m

Current weather observation

The report was made 15 hours and 28 minutes ago, at 07:00 UTC
Wind 6 kt from the North/Northeast
Temperature 6°C
Humidity 70%
Pressure 1026 hPa
Visibility 10 km or more
no clouds below 1500 m and no cumulonimbus

METAR: LIPU 170700Z 03006KT CAVOK 06/01 Q1026

Time: 23:28 (22:28 UTC)


TAF: missing

Weather observations and forecasts of more than 4000 airports (METAR and TAF reports).

The available stations are represented by yellow and red dots on the map.

Hover mouse over dot to see the name of the station.

Then click to see weather observations and forecasts.

To change the map : click on the green buttons with a black cross to zoom in, on the green button with a dash to zoom out, or on the green arrows for adjacent maps.


METAR-TAF: